Time;durP1;ratioP1;P1;durP2;ratioP2;P2;SDS_P1;SDS_P2;PMS_P1;PMS_P2;Temp;Humidity;BMP_temperature;BMP_pressure;BME280_temperature;BME280_humidity;BME280_pressure;Samples;Min_cycle;Max_cycle;Signal;HPM_P1;HPM_P2
2022/12/30 00:00:46;;;;;;;25.83;24.63;;;7.50;99.90;;;;;;5039786;28;20171;-81
2022/12/30 00:03:12;;;;;;;20.30;19.40;;;7.50;99.90;;;;;;5017505;28;20258;-80
2022/12/30 00:05:37;;;;;;;11.77;11.07;;;7.50;99.90;;;;;;5016771;28;20182;-81
2022/12/30 00:08:03;;;;;;;24.40;23.30;;;7.50;99.90;;;;;;5015754;28;20522;-80
2022/12/30 00:10:29;;;;;;;26.90;25.70;;;7.50;99.90;;;;;;5035165;28;20186;-79
2022/12/30 00:35:16;;;;;;;16.97;16.17;;;7.50;99.90;;;;;;5036634;28;20214;-80
2022/12/30 00:37:41;;;;;;;17.67;16.83;;;7.50;99.90;;;;;;5018935;28;20191;-80
2022/12/30 00:40:08;;;;;;;16.13;15.43;;;7.50;99.90;;;;;;5019916;28;20187;-81
2022/12/30 00:45:18;;;;;;;8.77;8.37;;;7.60;99.90;;;;;;5040146;28;20187;-80
2022/12/30 00:47:45;;;;;;;8.77;8.47;;;7.60;99.90;;;;;;5028550;28;20178;-80
2022/12/30 00:58:25;;;;;;;5.90;5.60;;;7.50;99.90;;;;;;5042461;28;20186;-81
2022/12/30 01:00:50;;;;;;;5.27;4.90;;;7.50;99.90;;;;;;5019967;28;20203;-81
2022/12/30 01:03:16;;;;;;;5.43;5.00;;;7.50;99.90;;;;;;5035933;28;20210;-82
2022/12/30 01:05:42;;;;;;;6.27;5.97;;;7.50;99.90;;;;;;5019063;28;20174;-81
2022/12/30 01:08:08;;;;;;;10.47;10.07;;;7.50;99.90;;;;;;5024397;28;20175;-81
2022/12/30 01:10:34;;;;;;;9.90;9.50;;;7.50;99.90;;;;;;5025911;28;20175;-80
2022/12/30 01:12:59;;;;;;;10.57;10.17;;;7.50;99.90;;;;;;5037143;28;20699;-82
2022/12/30 01:15:25;;;;;;;11.73;11.07;;;7.50;99.90;;;;;;5019260;28;20273;-81
2022/12/30 01:17:51;;;;;;;10.67;10.17;;;7.50;99.90;;;;;;5019037;28;20198;-81
2022/12/30 01:20:17;;;;;;;9.93;9.37;;;7.50;99.90;;;;;;5036887;28;20187;-81
2022/12/30 01:22:43;;;;;;;9.50;9.10;;;7.40;99.90;;;;;;5019433;28;20225;-81
2022/12/30 01:25:09;;;;;;;10.93;10.43;;;7.40;99.90;;;;;;5018743;28;20179;-82
2022/12/30 01:27:34;;;;;;;9.53;9.20;;;7.40;99.90;;;;;;5018566;28;20180;-81
2022/12/30 01:30:00;;;;;;;5.87;5.67;;;7.40;99.90;;;;;;5036135;28;20175;-81
2022/12/30 01:32:29;;;;;;;4.97;4.80;;;7.40;99.90;;;;;;5018872;28;20723;-81
2022/12/30 01:34:56;;;;;;;7.43;7.13;;;7.40;99.90;;;;;;5035818;28;20179;-81
2022/12/30 01:37:22;;;;;;;9.67;9.23;;;7.50;99.90;;;;;;5033614;28;20179;-81
2022/12/30 01:39:48;;;;;;;10.30;9.90;;;7.40;99.90;;;;;;5041269;28;20168;-82
2022/12/30 01:42:22;;;;;;;6.90;6.70;;;7.40;99.90;;;;;;5029228;28;20191;-80
2022/12/30 01:45:00;;;;;;;7.20;6.93;;;7.30;99.90;;;;;;5017825;28;20565;-81
2022/12/30 01:47:50;;;;;;;10.43;9.93;;;7.30;99.90;;;;;;5020506;28;20600;-82
2022/12/30 01:50:33;;;;;;;9.63;9.23;;;7.30;99.90;;;;;;5035456;28;20179;-82
2022/12/30 01:53:05;;;;;;;6.90;6.50;;;7.20;99.90;;;;;;5020525;28;20576;-82
2022/12/30 01:55:31;;;;;;;4.77;4.67;;;7.20;99.90;;;;;;5017588;28;20183;-82
2022/12/30 01:58:00;;;;;;;5.23;5.00;;;7.20;99.90;;;;;;5016980;28;20568;-82
2022/12/30 02:00:26;;;;;;;4.97;4.77;;;7.10;99.90;;;;;;5018306;28;20187;-82
2022/12/30 02:02:54;;;;;;;4.97;4.77;;;7.10;99.90;;;;;;5018643;28;20309;-82
2022/12/30 02:05:24;;;;;;;4.53;4.20;;;7.10;99.90;;;;;;5036279;28;20187;-82
2022/12/30 02:07:59;;;;;;;7.53;7.13;;;7.20;99.90;;;;;;5017874;28;20175;-81
2022/12/30 02:10:25;;;;;;;11.40;10.90;;;7.20;99.90;;;;;;5035709;28;20567;-82
2022/12/30 02:12:51;;;;;;;7.73;7.37;;;7.20;99.90;;;;;;5018245;28;20226;-82
2022/12/30 02:15:17;;;;;;;6.47;5.83;;;7.20;99.90;;;;;;5035274;28;20228;-82
2022/12/30 02:18:09;;;;;;;8.70;8.30;;;7.20;99.90;;;;;;5017015;28;20179;-82
2022/12/30 02:21:26;;;;;;;11.23;10.73;;;7.20;99.90;;;;;;5023046;28;20254;-83
2022/12/30 02:24:04;;;;;;;11.03;10.57;;;7.30;99.90;;;;;;4969674;28;20229;-81
2022/12/30 02:26:52;;;;;;;12.07;11.47;;;7.20;99.90;;;;;;5024556;28;20191;-82
2022/12/30 02:29:54;;;;;;;7.70;7.17;;;7.20;99.90;;;;;;5051316;28;20334;-81
2022/12/30 02:33:02;;;;;;;11.93;11.23;;;7.10;99.90;;;;;;5019950;28;20225;-80
2022/12/30 02:35:46;;;;;;;10.40;9.70;;;7.10;99.90;;;;;;5011464;28;20329;-81
2022/12/30 02:38:24;;;;;;;7.80;7.50;;;7.00;99.90;;;;;;5037114;28;20206;-83
2022/12/30 02:46:59;;;;;;;9.40;9.00;;;6.70;99.90;;;;;;5042564;28;20206;-83
2022/12/30 02:49:26;;;;;;;10.63;10.03;;;6.60;99.90;;;;;;5021228;28;20654;-82
2022/12/30 02:54:38;;;;;;;7.60;7.27;;;6.60;99.90;;;;;;5036221;28;20248;-82
2022/12/30 02:57:21;;;;;;;6.67;6.37;;;6.50;99.90;;;;;;5017673;28;20187;-82
2022/12/30 03:06:25;;;;;;;6.83;6.43;;;6.10;99.90;;;;;;5034633;28;20179;-82
2022/12/30 03:09:12;;;;;;;6.53;6.23;;;6.30;99.90;;;;;;5017010;28;20178;-81
2022/12/30 03:11:51;;;;;;;5.47;5.27;;;6.20;99.90;;;;;;5018041;28;20179;-83
2022/12/30 03:14:33;;;;;;;6.07;5.77;;;6.30;99.90;;;;;;5034742;28;20203;-81
2022/12/30 03:17:33;;;;;;;8.10;7.30;;;6.30;99.90;;;;;;5023002;28;20239;-83
2022/12/30 03:20:08;;;;;;;8.53;8.13;;;6.20;99.90;;;;;;5030537;28;20206;-82
2022/12/30 03:28:08;;;;;;;6.63;6.33;;;5.90;99.90;;;;;;5033389;28;20678;-82
2022/12/30 03:30:51;;;;;;;6.23;6.03;;;5.80;99.90;;;;;;5015841;28;20567;-81
2022/12/30 03:33:18;;;;;;;7.20;6.77;;;5.80;99.90;;;;;;5033747;28;20210;-83
2022/12/30 03:36:01;;;;;;;5.50;5.00;;;5.70;99.90;;;;;;5016463;28;20260;-83
2022/12/30 03:38:32;;;;;;;5.33;5.13;;;5.60;99.90;;;;;;5016106;28;20183;-81
2022/12/30 03:41:01;;;;;;;6.80;6.50;;;5.60;99.90;;;;;;5015959;28;20183;-81
2022/12/30 03:43:27;;;;;;;6.03;5.83;;;5.50;99.90;;;;;;5016292;28;20654;-81
2022/12/30 03:45:54;;;;;;;5.13;4.93;;;5.50;99.90;;;;;;5020467;28;20299;-82
2022/12/30 03:48:20;;;;;;;7.13;6.83;;;5.50;99.90;;;;;;5020806;28;20619;-82
2022/12/30 03:50:45;;;;;;;5.70;5.40;;;5.30;99.90;;;;;;5038850;28;20265;-82
2022/12/30 03:53:11;;;;;;;5.07;4.87;;;5.20;99.90;;;;;;5025157;28;20229;-82
2022/12/30 03:55:38;;;;;;;4.83;4.73;;;5.20;99.90;;;;;;5048554;28;20550;-81
2022/12/30 03:58:03;;;;;;;5.10;4.90;;;5.00;99.90;;;;;;5038671;28;20182;-82
2022/12/30 04:00:29;;;;;;;6.10;5.90;;;4.90;99.90;;;;;;5034092;28;20210;-82
2022/12/30 04:02:55;;;;;;;6.87;6.20;;;4.70;99.90;;;;;;5035725;28;20245;-81
2022/12/30 04:05:21;;;;;;;9.20;8.80;;;4.60;99.90;;;;;;5020560;28;20273;-82
2022/12/30 04:07:47;;;;;;;8.50;8.10;;;4.50;99.90;;;;;;5038072;28;20240;-82
2022/12/30 04:10:13;;;;;;;4.43;4.10;;;4.50;99.90;;;;;;5020609;28;20608;-81
2022/12/30 04:12:39;;;;;;;6.83;6.53;;;4.50;99.90;;;;;;5038250;28;20264;-82
2022/12/30 04:15:06;;;;;;;6.40;6.10;;;4.50;99.90;;;;;;5022099;28;20197;-82
2022/12/30 04:17:31;;;;;;;8.33;8.00;;;4.40;99.90;;;;;;5020077;28;20240;-81
2022/12/30 04:19:57;;;;;;;13.37;12.70;;;4.40;99.90;;;;;;5020759;28;20186;-81
2022/12/30 04:22:23;;;;;;;10.90;10.23;;;4.40;99.90;;;;;;5022520;28;20203;-81
2022/12/30 04:24:49;;;;;;;12.90;12.30;;;4.40;99.90;;;;;;5028097;28;20248;-82
2022/12/30 04:27:14;;;;;;;12.80;12.20;;;4.20;99.90;;;;;;5023823;28;20183;-81
2022/12/30 04:29:40;;;;;;;10.43;9.93;;;4.20;99.90;;;;;;5041177;28;20183;-81
2022/12/30 04:32:06;;;;;;;17.40;16.70;;;4.10;99.90;;;;;;5027914;28;20240;-81
2022/12/30 04:34:32;;;;;;;18.97;18.17;;;4.10;99.90;;;;;;5043957;28;20281;-81
2022/12/30 04:36:57;;;;;;;11.50;11.00;;;4.00;99.90;;;;;;5020732;28;20239;-81
2022/12/30 04:39:23;;;;;;;9.17;8.83;;;4.00;99.90;;;;;;5020659;28;20217;-81
2022/12/30 04:41:49;;;;;;;10.20;9.70;;;3.90;99.90;;;;;;5020663;28;20190;-82
2022/12/30 04:44:15;;;;;;;8.33;7.90;;;3.80;99.90;;;;;;5020516;28;20226;-82
2022/12/30 04:46:40;;;;;;;7.33;7.03;;;3.80;99.90;;;;;;5020544;28;20189;-81
2022/12/30 04:49:06;;;;;;;6.83;6.60;;;3.80;99.90;;;;;;5037468;28;20193;-81
2022/12/30 04:51:32;;;;;;;6.10;5.90;;;3.70;99.90;;;;;;5021157;28;20240;-81
2022/12/30 04:53:58;;;;;;;6.10;5.90;;;3.50;99.90;;;;;;5037749;28;20245;-81
2022/12/30 04:56:23;;;;;;;6.87;6.57;;;3.40;99.90;;;;;;5019313;28;20186;-82
2022/12/30 04:58:49;;;;;;;6.83;6.53;;;3.40;99.90;;;;;;5037324;28;20179;-82
2022/12/30 05:01:18;;;;;;;6.67;6.23;;;3.30;99.90;;;;;;5043687;28;20171;-83
2022/12/30 05:03:44;;;;;;;7.10;6.70;;;3.30;99.90;;;;;;5048160;28;20233;-82
2022/12/30 05:06:09;;;;;;;8.40;8.00;;;3.30;99.90;;;;;;5021632;28;20190;-82
2022/12/30 05:08:35;;;;;;;10.53;9.93;;;3.30;99.90;;;;;;5022374;28;20189;-81
2022/12/30 05:11:01;;;;;;;9.63;9.00;;;3.30;99.90;;;;;;5020269;28;20939;-81
2022/12/30 05:13:27;;;;;;;10.17;9.07;;;3.20;99.90;;;;;;5019383;28;20263;-82
2022/12/30 05:15:53;;;;;;;10.53;9.93;;;3.20;99.90;;;;;;5019812;28;20293;-81
2022/12/30 05:18:18;;;;;;;9.87;9.37;;;3.20;99.90;;;;;;5018835;28;20194;-80
2022/12/30 05:20:44;;;;;;;9.33;8.77;;;3.10;99.90;;;;;;5036821;28;20182;-80
2022/12/30 05:26:13;;;;;;;7.27;6.70;;;3.10;99.90;;;;;;5020456;28;20217;-80
2022/12/30 05:26:14;;;;;;;6.87;6.57;;;3.00;99.90;;;;;;5047417;28;20186;-81
2022/12/30 05:28:40;;;;;;;7.90;7.30;;;3.00;99.90;;;;;;5020758;28;20190;-80
2022/12/30 05:31:06;;;;;;;7.80;7.20;;;2.90;99.90;;;;;;5044383;28;20186;-79
2022/12/30 05:33:32;;;;;;;7.40;6.90;;;2.90;99.90;;;;;;5020409;28;20206;-81
2022/12/30 05:35:58;;;;;;;8.37;7.53;;;2.90;99.90;;;;;;5036631;28;20190;-80
2022/12/30 05:38:23;;;;;;;7.40;7.00;;;2.80;99.90;;;;;;5036453;28;20185;-80
2022/12/30 05:40:50;;;;;;;7.17;6.77;;;2.80;99.90;;;;;;5019678;28;20189;-80
2022/12/30 05:43:16;;;;;;;6.87;6.50;;;2.80;99.90;;;;;;5011093;28;20683;-81
2022/12/30 05:45:42;;;;;;;6.00;5.67;;;2.70;99.90;;;;;;5010333;28;20230;-80
2022/12/30 05:48:08;;;;;;;6.67;5.50;;;2.60;99.90;;;;;;5002217;28;20191;-80
2022/12/30 05:50:33;;;;;;;6.53;5.93;;;2.50;99.90;;;;;;4999324;28;20574;-81
2022/12/30 05:52:59;;;;;;;7.13;6.50;;;2.50;99.90;;;;;;5003296;28;20237;-80
2022/12/30 05:55:25;;;;;;;6.60;6.20;;;2.60;99.90;;;;;;5019124;28;20186;-80
2022/12/30 05:57:51;;;;;;;8.80;6.57;;;2.70;99.90;;;;;;5017917;28;20277;-80
2022/12/30 06:00:16;;;;;;;12.80;11.17;;;2.80;99.90;;;;;;5039796;28;20186;-80
2022/12/30 06:02:42;;;;;;;25.60;23.70;;;2.80;99.90;;;;;;5020472;28;20765;-80
2022/12/30 06:05:09;;;;;;;16.27;15.30;;;2.70;99.90;;;;;;5032650;28;20202;-80
2022/12/30 06:07:37;;;;;;;9.03;6.10;;;2.70;99.90;;;;;;5026622;28;20194;-80
2022/12/30 06:10:03;;;;;;;6.67;5.60;;;2.50;99.90;;;;;;5022917;28;20175;-79
2022/12/30 06:12:29;;;;;;;6.27;5.67;;;2.50;99.90;;;;;;5039866;28;20229;-81
2022/12/30 06:14:55;;;;;;;6.53;5.87;;;2.50;99.90;;;;;;5022396;28;20650;-79
2022/12/30 06:17:21;;;;;;;7.43;6.83;;;2.50;99.90;;;;;;5018004;28;20189;-80
2022/12/30 06:19:46;;;;;;;7.50;7.03;;;2.40;99.90;;;;;;5017549;28;20186;-80
2022/12/30 06:22:12;;;;;;;7.90;7.50;;;2.40;99.90;;;;;;5017060;28;20539;-80
2022/12/30 06:24:38;;;;;;;7.53;7.13;;;2.30;99.90;;;;;;5017107;28;20222;-81
2022/12/30 06:27:04;;;;;;;7.97;7.50;;;2.30;99.90;;;;;;5016865;28;20188;-80
2022/12/30 06:29:29;;;;;;;7.10;6.67;;;2.20;99.90;;;;;;5015882;28;20232;-80
2022/12/30 06:31:55;;;;;;;8.37;7.67;;;2.20;99.90;;;;;;5012394;28;20197;-80
2022/12/30 06:34:21;;;;;;;18.63;17.60;;;2.30;99.90;;;;;;5016905;28;20704;-79
2022/12/30 06:36:46;;;;;;;26.50;25.10;;;2.30;99.90;;;;;;5016180;28;20191;-74
2022/12/30 06:39:12;;;;;;;25.93;24.17;;;2.30;99.90;;;;;;5016706;28;20188;-74
2022/12/30 06:41:38;;;;;;;12.43;11.80;;;2.20;99.90;;;;;;5015096;28;20185;-75
2022/12/30 06:44:04;;;;;;;18.13;17.13;;;2.20;99.90;;;;;;5012021;28;20206;-75
2022/12/30 06:46:29;;;;;;;10.30;9.60;;;2.10;99.90;;;;;;5030793;28;20191;-74
2022/12/30 06:48:56;;;;;;;7.93;7.43;;;2.10;99.90;;;;;;5029927;28;20178;-75
2022/12/30 06:51:22;;;;;;;8.53;7.87;;;2.10;99.90;;;;;;5012733;28;20194;-75
2022/12/30 06:53:48;;;;;;;10.20;9.50;;;2.10;99.90;;;;;;5013169;28;20198;-75
2022/12/30 06:56:14;;;;;;;11.57;10.67;;;2.10;99.90;;;;;;5027932;28;20666;-75
2022/12/30 06:58:39;;;;;;;10.40;9.90;;;2.00;99.90;;;;;;5011895;28;20281;-73
2022/12/30 07:01:05;;;;;;;8.73;8.13;;;1.90;99.90;;;;;;5018632;28;20190;-74
2022/12/30 07:03:31;;;;;;;9.00;8.40;;;1.90;99.90;;;;;;5012168;28;20237;-74
2022/12/30 07:05:57;;;;;;;9.17;8.33;;;1.80;99.90;;;;;;5013012;28;20262;-74
2022/12/30 07:08:22;;;;;;;8.73;7.93;;;1.80;99.90;;;;;;5011765;28;20199;-74
2022/12/30 07:10:48;;;;;;;8.47;7.87;;;1.70;99.90;;;;;;5013106;28;20186;-75
2022/12/30 07:13:14;;;;;;;9.20;8.50;;;1.70;99.90;;;;;;5012655;28;20205;-75
2022/12/30 07:15:40;;;;;;;23.80;22.40;;;1.70;99.90;;;;;;5029996;28;20269;-74
2022/12/30 07:18:06;;;;;;;17.30;16.27;;;1.80;99.90;;;;;;5012268;28;20213;-75
2022/12/30 07:20:32;;;;;;;14.27;13.27;;;1.90;99.90;;;;;;5016476;28;20659;-74
2022/12/30 07:22:58;;;;;;;13.93;13.03;;;2.00;99.90;;;;;;5016262;28;20221;-74
2022/12/30 07:25:24;;;;;;;14.70;13.17;;;2.00;99.90;;;;;;5016994;28;20174;-74
2022/12/30 07:27:49;;;;;;;12.10;11.10;;;2.10;99.90;;;;;;5015886;28;20206;-74
2022/12/30 07:30:15;;;;;;;12.10;10.90;;;2.20;99.90;;;;;;5034118;28;20262;-74
2022/12/30 07:32:41;;;;;;;14.40;13.23;;;2.20;99.90;;;;;;5016598;28;20199;-75
2022/12/30 07:35:07;;;;;;;22.43;20.83;;;2.20;99.90;;;;;;5016671;28;20691;-75
2022/12/30 07:37:34;;;;;;;16.60;14.33;;;2.20;99.90;;;;;;5033151;28;20202;-74
2022/12/30 07:40:01;;;;;;;45.47;17.20;;;2.30;99.90;;;;;;5034165;28;20221;-75
2022/12/30 07:42:26;;;;;;;51.80;13.00;;;2.30;99.90;;;;;;5035131;28;20226;-75
2022/12/30 07:44:52;;;;;;;40.63;8.20;;;2.30;99.90;;;;;;5007495;28;20290;-75
2022/12/30 07:47:18;;;;;;;30.73;9.70;;;2.30;99.90;;;;;;5013517;28;20209;-69
2022/12/30 07:49:43;;;;;;;46.97;22.77;;;2.40;99.90;;;;;;5018200;28;20252;-75
2022/12/30 07:52:09;;;;;;;47.53;16.80;;;2.50;99.90;;;;;;5033360;28;20205;-74
2022/12/30 07:54:35;;;;;;;23.23;10.33;;;2.50;99.90;;;;;;5014161;28;20240;-74
2022/12/30 07:57:01;;;;;;;18.17;10.30;;;2.50;99.90;;;;;;5007943;28;20214;-75
2022/12/30 07:59:26;;;;;;;24.93;9.33;;;2.50;99.90;;;;;;5015497;28;20191;-75
2022/12/30 08:01:52;;;;;;;11.53;8.03;;;2.50;99.90;;;;;;5033540;28;20327;-76
2022/12/30 08:04:18;;;;;;;19.70;9.47;;;2.60;99.90;;;;;;5015068;28;20255;-75
2022/12/30 08:06:44;;;;;;;23.07;8.33;;;2.60;99.90;;;;;;5014853;28;20520;-75
2022/12/30 08:09:09;;;;;;;47.80;8.33;;;2.70;99.90;;;;;;5011044;28;20178;-75
2022/12/30 08:11:35;;;;;;;20.67;9.80;;;2.80;99.90;;;;;;4995496;28;20599;-75
2022/12/30 08:14:01;;;;;;;23.70;10.43;;;2.80;99.90;;;;;;5026776;28;20205;-75
2022/12/30 08:16:27;;;;;;;20.27;10.77;;;2.90;99.90;;;;;;5023870;28;20200;-77
2022/12/30 08:18:53;;;;;;;25.10;10.87;;;3.00;99.90;;;;;;5016580;28;20186;-76
2022/12/30 08:21:18;;;;;;;43.10;17.87;;;3.10;99.90;;;;;;5001035;28;20180;-75
2022/12/30 08:23:46;;;;;;;35.10;17.73;;;3.20;99.90;;;;;;5010628;28;20203;-73
2022/12/30 08:26:21;;;;;;;34.47;14.37;;;3.30;99.90;;;;;;5017629;28;20182;-74
2022/12/30 08:28:47;;;;;;;21.23;11.80;;;3.30;99.90;;;;;;5013520;28;20273;-74
2022/12/30 08:31:24;;;;;;;42.03;13.07;;;3.30;99.90;;;;;;5032887;28;20182;-75
2022/12/30 08:33:51;;;;;;;35.90;13.33;;;3.30;99.90;;;;;;5021382;28;20211;-77
2022/12/30 08:36:22;;;;;;;60.40;15.90;;;3.30;99.90;;;;;;5016206;28;20205;-75
2022/12/30 08:38:51;;;;;;;30.00;14.87;;;3.30;99.90;;;;;;5032357;28;20270;-76
2022/12/30 08:41:23;;;;;;;49.53;12.40;;;3.40;99.90;;;;;;5015440;28;20185;-75
2022/12/30 08:43:50;;;;;;;27.50;10.53;;;3.40;99.90;;;;;;5033100;28;20684;-76
2022/12/30 08:46:17;;;;;;;18.43;10.40;;;3.40;99.90;;;;;;5033269;28;20182;-76
2022/12/30 08:48:43;;;;;;;13.33;10.77;;;3.50;99.90;;;;;;5014275;28;20209;-76
2022/12/30 08:51:10;;;;;;;28.03;10.57;;;3.80;99.90;;;;;;5033162;28;20209;-75
2022/12/30 08:53:36;;;;;;;17.17;15.70;;;4.20;99.90;;;;;;5015375;28;20730;-76
2022/12/30 08:56:07;;;;;;;14.00;12.70;;;4.40;99.90;;;;;;5032805;28;20210;-76
2022/12/30 08:58:34;;;;;;;13.80;9.87;;;4.40;99.90;;;;;;5014175;28;20599;-76
2022/12/30 09:01:09;;;;;;;10.53;9.63;;;4.60;99.90;;;;;;5033350;28;20198;-76
2022/12/30 09:03:37;;;;;;;12.67;11.50;;;5.70;99.90;;;;;;5033311;28;20214;-77
2022/12/30 09:06:03;;;;;;;21.10;19.70;;;6.60;99.90;;;;;;5015939;28;20178;-75
2022/12/30 09:08:29;;;;;;;19.10;17.90;;;6.70;99.90;;;;;;5014706;28;20190;-78
2022/12/30 09:11:01;;;;;;;11.17;10.37;;;6.80;99.90;;;;;;5014973;28;20190;-76
2022/12/30 09:13:27;;;;;;;27.47;25.90;;;7.50;99.90;;;;;;5032507;28;20645;-77
2022/12/30 09:15:53;;;;;;;13.30;12.50;;;8.10;99.90;;;;;;5015330;28;20801;-77
2022/12/30 09:18:19;;;;;;;20.20;19.00;;;8.80;99.90;;;;;;5014468;28;20183;-77
2022/12/30 09:20:44;;;;;;;21.13;19.93;;;9.40;99.90;;;;;;5032893;28;20183;-76
2022/12/30 09:23:10;;;;;;;17.20;16.27;;;9.50;99.90;;;;;;5014891;28;20569;-77
2022/12/30 09:25:36;;;;;;;15.70;14.77;;;9.60;99.90;;;;;;5033061;28;20597;-76
2022/12/30 09:28:02;;;;;;;17.73;16.73;;;9.70;99.90;;;;;;5032048;28;20179;-78
2022/12/30 09:30:28;;;;;;;14.23;13.40;;;10.20;99.90;;;;;;5014597;28;20241;-77
2022/12/30 09:32:54;;;;;;;13.37;12.43;;;10.90;99.90;;;;;;5032353;28;20203;-77
2022/12/30 09:35:19;;;;;;;9.17;8.50;;;11.40;99.90;;;;;;5010394;28;20253;-77
2022/12/30 09:37:45;;;;;;;8.50;7.90;;;11.90;99.90;;;;;;5013528;28;20221;-77
2022/12/30 09:40:17;;;;;;;13.30;12.50;;;12.10;99.90;;;;;;5014498;28;20206;-77
2022/12/30 09:45:45;;;;;;;9.87;9.27;;;12.90;99.90;;;;;;5037063;28;20243;-79
2022/12/30 09:48:17;;;;;;;15.23;14.23;;;13.20;99.90;;;;;;5012407;28;20551;-78
2022/12/30 09:50:50;;;;;;;16.17;14.97;;;13.40;99.90;;;;;;5015979;28;20206;-77
2022/12/30 09:53:29;;;;;;;8.77;8.17;;;13.50;99.90;;;;;;5015413;28;20207;-77
2022/12/30 09:56:03;;;;;;;6.73;6.23;;;13.20;99.90;;;;;;5014405;28;20205;-75
2022/12/30 09:58:34;;;;;;;8.70;8.20;;;12.80;99.90;;;;;;5029867;28;20186;-75
2022/12/30 10:01:26;;;;;;;9.77;9.23;;;13.00;99.90;;;;;;5034391;28;20191;-75
2022/12/30 10:03:57;;;;;;;14.77;13.83;;;13.20;99.90;;;;;;5020158;28;20267;-77
2022/12/30 10:06:42;;;;;;;10.50;9.87;;;13.10;99.90;;;;;;5014986;28;20183;-77
2022/12/30 10:09:17;;;;;;;16.50;15.57;;;14.10;99.90;;;;;;5031626;28;20182;-79
2022/12/30 10:11:48;;;;;;;42.93;40.67;;;14.10;99.90;;;;;;5030859;28;20717;-76
2022/12/30 10:14:52;;;;;;;43.23;40.97;;;13.80;99.90;;;;;;5013289;28;20750;-76
2022/12/30 10:17:46;;;;;;;43.20;41.07;;;13.70;99.90;;;;;;5012983;28;20277;-76
2022/12/30 10:20:31;;;;;;;35.07;33.30;;;14.30;99.90;;;;;;5013228;28;20278;-76
2022/12/30 10:23:03;;;;;;;5.90;5.60;;;14.90;99.90;;;;;;5009676;28;20214;-76
2022/12/30 10:25:51;;;;;;;6.27;5.97;;;14.60;99.90;;;;;;5029412;28;20179;-78
2022/12/30 10:28:24;;;;;;;6.63;6.33;;;14.40;99.90;;;;;;5012361;28;20183;-76
2022/12/30 10:30:50;;;;;;;6.43;6.13;;;14.60;99.90;;;;;;5013355;28;20190;-77
2022/12/30 10:33:20;;;;;;;5.93;5.57;;;14.70;99.90;;;;;;5012890;28;20195;-75
2022/12/30 10:35:51;;;;;;;6.43;5.83;;;14.50;99.90;;;;;;5030586;28;20257;-76
2022/12/30 10:38:21;;;;;;;6.20;5.67;;;14.60;99.90;;;;;;5029652;28;20194;-76
2022/12/30 10:41:31;;;;;;;5.47;5.07;;;14.50;99.90;;;;;;5029940;28;20187;-76
2022/12/30 10:44:16;;;;;;;5.23;4.93;;;14.30;99.90;;;;;;5030773;28;20230;-76
2022/12/30 10:46:53;;;;;;;5.83;5.53;;;14.50;99.90;;;;;;5013058;28;20257;-76
2022/12/30 10:49:27;;;;;;;4.93;4.73;;;14.30;99.90;;;;;;4993557;28;20186;-77
2022/12/30 10:51:54;;;;;;;13.60;6.10;;;14.50;99.90;;;;;;4995312;28;20191;-71
2022/12/30 10:54:20;;;;;;;5.97;5.47;;;14.50;99.90;;;;;;4993873;28;20237;-76
2022/12/30 10:56:47;;;;;;;7.97;7.23;;;14.50;99.90;;;;;;5017703;28;20664;-76
2022/12/30 10:59:17;;;;;;;5.60;5.30;;;14.90;99.90;;;;;;5030866;28;20183;-76
2022/12/30 11:01:46;;;;;;;6.10;5.67;;;16.00;99.90;;;;;;5015001;28;20182;-77
2022/12/30 11:04:31;;;;;;;4.47;4.27;;;16.30;99.90;;;;;;5042353;23;20245;-73
2022/12/30 11:06:59;;;;;;;4.57;4.27;;;16.50;99.90;;;;;;5029561;28;20297;-74
2022/12/30 11:09:26;;;;;;;4.13;4.03;;;16.30;99.90;;;;;;5030602;28;20179;-74
2022/12/30 11:14:44;;;;;;;5.03;4.83;;;16.60;99.90;;;;;;5015373;28;20238;-75
2022/12/30 11:17:16;;;;;;;6.23;5.63;;;16.60;99.90;;;;;;5019037;28;20270;-75
2022/12/30 11:19:43;;;;;;;4.77;4.47;;;16.50;99.90;;;;;;5030628;28;20182;-75
2022/12/30 11:22:10;;;;;;;4.63;4.43;;;16.60;99.90;;;;;;5031049;28;20786;-75
2022/12/30 11:24:43;;;;;;;6.57;6.17;;;16.80;99.90;;;;;;5038577;28;20314;-74
2022/12/30 11:27:10;;;;;;;6.27;5.90;;;17.00;99.90;;;;;;5033204;28;20231;-75
2022/12/30 11:29:36;;;;;;;5.73;5.43;;;16.70;99.90;;;;;;5029527;28;20566;-75
2022/12/30 11:32:11;;;;;;;8.77;8.37;;;17.40;99.90;;;;;;5030702;28;20205;-75
2022/12/30 11:34:39;;;;;;;14.27;13.60;;;17.90;99.90;;;;;;5029342;28;20201;-75
2022/12/30 11:37:31;;;;;;;23.47;22.37;;;18.70;99.90;;;;;;5029718;28;20174;-75
2022/12/30 11:40:24;;;;;;;6.70;6.40;;;19.70;99.90;;;;;;5029668;28;20365;-75
2022/12/30 11:43:16;;;;;;;7.00;6.63;;;20.10;99.90;;;;;;5031106;28;20183;-75
2022/12/30 11:45:55;;;;;;;7.27;6.87;;;19.30;99.90;;;;;;5031641;28;20222;-75
2022/12/30 11:48:34;;;;;;;8.97;8.57;;;18.40;99.90;;;;;;5010192;28;20218;-75
2022/12/30 11:51:03;;;;;;;9.17;8.77;;;19.00;99.90;;;;;;5010974;28;20274;-75
2022/12/30 11:53:34;;;;;;;6.80;6.50;;;19.50;99.90;;;;;;5009592;28;20900;-76
2022/12/30 11:55:59;;;;;;;6.93;6.63;;;19.90;99.90;;;;;;5011864;28;20184;-75
2022/12/30 11:58:26;;;;;;;8.97;8.57;;;20.00;99.60;;;;;;5029600;28;20186;-75
2022/12/30 12:01:01;;;;;;;6.80;6.50;;;19.70;99.90;;;;;;5030591;28;20274;-75
2022/12/30 12:03:28;;;;;;;8.83;8.43;;;19.00;99.90;;;;;;5030177;28;20312;-75
2022/12/30 12:06:11;;;;;;;17.73;16.33;;;19.20;99.90;;;;;;5030770;28;20669;-74
2022/12/30 12:08:45;;;;;;;9.87;9.37;;;18.90;99.90;;;;;;5012281;28;20187;-75
2022/12/30 12:11:17;;;;;;;8.53;8.13;;;18.20;99.90;;;;;;5014363;28;20675;-74
2022/12/30 12:13:58;;;;;;;10.57;10.07;;;17.30;99.90;;;;;;5012882;28;20682;-75
2022/12/30 12:17:00;;;;;;;10.97;10.27;;;16.60;99.90;;;;;;5018005;28;20644;-74
2022/12/30 12:19:38;;;;;;;11.83;11.23;;;16.00;99.90;;;;;;5033828;28;20206;-74
2022/12/30 12:22:16;;;;;;;13.50;12.70;;;15.70;99.90;;;;;;5033910;28;20193;-74
2022/12/30 12:24:46;;;;;;;5.63;5.43;;;14.90;99.90;;;;;;5033607;28;20211;-74
2022/12/30 12:27:16;;;;;;;9.20;8.80;;;14.50;99.90;;;;;;5032898;28;20241;-75
2022/12/30 12:29:43;;;;;;;4.87;4.67;;;14.00;99.90;;;;;;5033361;28;20183;-75
2022/12/30 12:32:27;;;;;;;4.60;4.40;;;13.40;99.90;;;;;;5032604;28;20202;-74
2022/12/30 12:35:10;;;;;;;4.63;4.47;;;13.30;99.90;;;;;;5033511;28;20222;-74
2022/12/30 12:38:06;;;;;;;12.00;11.50;;;12.90;99.90;;;;;;5032573;28;20215;-74
2022/12/30 12:40:57;;;;;;;14.57;13.93;;;12.80;99.90;;;;;;5032373;28;20191;-74
2022/12/30 12:43:47;;;;;;;20.73;19.83;;;12.80;99.90;;;;;;5032125;28;20215;-74
2022/12/30 12:46:29;;;;;;;18.23;17.43;;;12.70;99.90;;;;;;5032113;28;20651;-74
2022/12/30 12:49:10;;;;;;;27.00;25.70;;;12.70;99.90;;;;;;5032469;28;20187;-74
2022/12/30 12:52:00;;;;;;;28.80;27.17;;;12.60;99.90;;;;;;5033405;28;20183;-74
2022/12/30 12:54:46;;;;;;;19.63;18.70;;;12.50;99.90;;;;;;5033256;28;20207;-74
2022/12/30 12:57:27;;;;;;;15.80;15.07;;;12.40;99.90;;;;;;5032472;28;20190;-75
2022/12/30 13:00:07;;;;;;;10.20;9.70;;;12.30;99.90;;;;;;5033224;28;20196;-75
2022/12/30 13:02:58;;;;;;;6.07;5.47;;;12.20;99.90;;;;;;5032025;28;20233;-73
2022/12/30 13:05:58;;;;;;;5.03;4.83;;;12.00;99.90;;;;;;5040493;28;20333;-74
2022/12/30 13:08:39;;;;;;;5.60;5.17;;;12.00;99.90;;;;;;5034986;28;20190;-75
2022/12/30 13:11:20;;;;;;;4.17;3.97;;;12.00;99.90;;;;;;5033060;28;20175;-72
2022/12/30 13:14:03;;;;;;;4.37;4.20;;;12.00;99.90;;;;;;5033291;28;20214;-73
2022/12/30 13:16:36;;;;;;;3.93;3.63;;;11.90;99.90;;;;;;5032771;28;20290;-73
2022/12/30 13:19:04;;;;;;;5.07;3.90;;;11.90;99.90;;;;;;5031943;28;20190;-74
2022/12/30 13:21:30;;;;;;;4.73;4.47;;;11.80;99.90;;;;;;5032760;28;20741;-74
2022/12/30 13:24:03;;;;;;;5.13;4.93;;;11.60;99.90;;;;;;5032508;28;20211;-74
2022/12/30 13:26:30;;;;;;;5.27;4.97;;;11.40;99.90;;;;;;5031284;28;20179;-74
2022/12/30 13:28:58;;;;;;;3.57;3.47;;;11.40;99.90;;;;;;5031759;28;20244;-73
2022/12/30 13:31:41;;;;;;;4.17;4.00;;;11.20;99.90;;;;;;5032958;28;20178;-74
2022/12/30 13:34:15;;;;;;;6.83;6.53;;;11.20;99.90;;;;;;5031391;28;20238;-74
2022/12/30 13:37:03;;;;;;;9.70;9.30;;;11.20;99.90;;;;;;5030736;28;20558;-73
2022/12/30 13:39:29;;;;;;;11.70;10.80;;;11.10;99.90;;;;;;5030928;28;20183;-73
2022/12/30 13:42:12;;;;;;;10.23;9.83;;;11.00;99.90;;;;;;5032351;28;20178;-73
2022/12/30 13:44:43;;;;;;;9.50;9.10;;;10.90;99.90;;;;;;5030894;28;20232;-74
2022/12/30 13:47:23;;;;;;;9.93;9.40;;;10.90;99.90;;;;;;5031270;28;20591;-74
2022/12/30 13:49:49;;;;;;;10.07;9.60;;;10.90;99.90;;;;;;5031041;28;20183;-74
2022/12/30 13:52:22;;;;;;;11.60;10.80;;;10.80;99.90;;;;;;5030994;28;20178;-73
2022/12/30 13:54:53;;;;;;;11.10;10.43;;;10.70;99.90;;;;;;5031914;28;20207;-74
2022/12/30 13:57:40;;;;;;;9.07;8.47;;;10.70;99.90;;;;;;5029821;28;20578;-73
2022/12/30 14:00:32;;;;;;;8.23;7.73;;;10.80;99.90;;;;;;5033104;28;20226;-73
2022/12/30 14:03:32;;;;;;;7.73;7.37;;;10.70;99.90;;;;;;5030321;28;20218;-73
2022/12/30 14:06:19;;;;;;;5.73;5.43;;;10.70;99.90;;;;;;5030738;28;20277;-73